Date,TemperatureHighF,TemperatureAvgF,TemperatureLowF,DewpointHighF,DewpointAvgF,DewpointLowF,HumidityHigh,HumidityAvg,HumidityLow,PressureMaxIn,PressureMinIn,WindSpeedMaxMPH,WindSpeedAvgMPH,GustSpeedMaxMPH,PrecipitationSumIn
2013-1-4,60.8,27.6,22.8,33.7,16.4,14.2,74,63,36,29.30,29.03,3,3,3,0.00
2013-1-5,43.9,30.4,20.5,28.4,20.0,10.7,85,66,42,29.09,28.88,3,3,3,0.00
2013-1-6,48.4,30.0,14.5,22.8,16.8,9.0,81,60,35,29.24,29.03,4,3,4,0.00
2013-1-7,50.0,35.2,23.5,25.4,20.9,17.0,85,57,38,29.03,28.82,4,4,4,0.00
2013-1-8,53.2,37.6,22.8,28.4,25.2,19.3,95,63,38,29.00,28.74,4,4,4,0.00
2013-1-9,34.3,34.3,34.3,25.9,25.9,25.9,71,71,71,29.33,29.00,4,4,4,0.00
2013-1-10,34.3,34.3,34.3,25.9,25.9,25.9,71,71,71,29.03,28.62,4,4,4,0.00
2013-1-11,34.3,34.3,34.3,25.9,25.9,25.9,71,71,71,28.65,28.35,4,4,4,0.00
2013-1-12,34.3,34.3,34.3,25.9,25.9,25.9,71,71,71,29.00,28.65,4,4,4,0.00
2013-1-13,34.3,34.3,34.3,25.9,25.9,25.9,71,71,71,29.21,28.97,4,4,4,0.00
2013-1-14,34.3,34.3,34.3,25.9,25.9,25.9,71,71,71,29.39,29.21,4,4,4,0.00
2013-1-15,34.3,34.3,34.3,25.9,25.9,25.9,71,71,71,29.24,28.94,4,4,4,0.00
2013-1-16,34.3,34.3,34.3,25.9,25.9,25.9,71,71,71,29.09,28.82,4,4,4,0.00
2013-1-17,34.3,34.3,34.3,25.9,25.9,25.9,71,71,71,29.39,29.09,4,4,4,0.00
2013-1-18,61.3,44.0,34.3,32.0,26.5,23.3,71,52,32,29.18,28.77,16,5,22,0.00
2013-1-19,62.2,44.1,25.7,28.1,23.9,10.5,70,47,27,29.15,28.74,14,5,22,0.00
2013-1-20,29.7,19.5,10.8,10.4,4.4,-0.3,73,52,35,29.30,29.15,8,3,12,0.00
2013-1-21,15.4,12.6,9.9,6.5,-2.7,-7.9,70,50,38,29.30,29.21,9,4,11,0.00
2013-1-22,34.5,18.8,11.5,12.6,0.8,-8.2,65,45,37,29.27,29.09,5,2,9,0.00
2013-1-23,41.7,30.4,12.7,17.5,11.2,2.6,66,45,38,29.33,29.03,10,5,13,0.00
2013-1-24,27.3,22.0,4.8,8.8,2.9,-8.0,52,43,36,29.39,29.03,6,3,8,0.00
2013-1-25,57.2,34.3,16.0,25.1,13.2,1.5,54,42,28,29.12,28.97,12,2,15,0.00
2013-1-26,34.9,34.9,34.9,15.7,15.7,15.7,45,45,45,29.15,28.91,3,2,5,0.00
2013-1-27,34.9,34.9,34.9,15.7,15.7,15.7,45,45,45,28.91,28.56,2,2,2,0.00
2013-1-28,34.9,34.9,34.9,15.7,15.7,15.7,45,45,45,28.74,28.44,2,2,2,0.00
2013-1-29,34.9,34.9,34.9,15.7,15.7,15.7,45,45,45,28.59,28.44,2,2,2,0.00
2013-1-30,34.9,34.9,34.9,15.7,15.7,10.7,45,45,45,28.77,28.50,7,2,7,0.00
2013-1-31,60.8,9.4,-3.1,33.7,-9.1,-19.6,44,40,36,29.30,29.06,3,3,3,0.00
2013-2-1,29.1,14.8,-5.1,13.4,-1.7,-21.3,60,45,39,29.27,28.94,3,3,3,0.00
2013-2-2,41.5,32.4,23.5,30.0,20.8,12.9,85,63,46,29.09,28.91,3,3,3,0.00
2013-2-3,47.3,36.8,21.4,24.0,19.4,10.4,67,50,37,29.12,28.68,3,3,3,0.00
2013-2-4,38.7,30.1,22.8,26.3,19.8,13.2,81,66,45,28.88,28.65,5,4,8,0.00
2013-2-5,57.9,38.5,25.9,30.7,24.1,19.0,87,60,32,28.97,28.74,5,5,5,0.00
2013-2-6,66.9,46.1,30.7,37.2,29.8,21.4,72,55,33,28.94,28.74,5,5,5,0.00
2013-2-7,44.2,36.9,30.2,37.6,28.5,21.6,84,71,53,29.12,28.74,5,5,5,0.00
2013-2-8,45.3,31.8,26.2,26.6,22.9,19.9,88,70,43,29.21,29.03,5,5,5,0.00
2013-2-9,58.8,40.2,29.7,33.8,29.2,25.4,87,67,38,29.06,28.56,5,5,5,0.00
2013-2-10,48.9,39.1,32.5,42.9,30.8,17.9,98,74,44,28.71,28.20,5,5,5,0.00
2013-2-11,48.9,35.0,28.8,23.6,18.9,16.0,64,52,37,29.06,28.71,5,5,5,0.00
2013-2-12,56.7,38.4,27.5,24.6,18.3,12.3,59,46,27,29.03,28.77,5,5,5,0.00
2013-2-13,62.2,41.8,23.9,29.5,21.8,12.3,76,48,26,28.80,28.62,5,5,5,0.00
2013-2-14,50.7,40.2,27.0,30.0,23.1,8.1,85,52,33,29.09,28.65,5,5,5,0.00
2013-2-15,38.5,25.9,13.3,23.0,13.0,5.7,88,61,34,29.30,29.09,5,5,5,0.00
2013-2-16,34.0,25.5,10.8,20.3,14.8,7.4,87,65,43,29.18,28.85,5,5,5,0.00
2013-2-17,63.0,42.3,23.9,32.3,23.9,15.4,73,50,31,28.88,28.44,5,5,5,0.00
2013-2-18,45.1,33.7,18.3,31.1,21.6,9.9,90,62,44,28.91,28.41,5,5,5,0.00
2013-2-19,32.9,20.1,10.4,9.9,-0.1,-6.5,70,41,31,29.27,28.91,5,5,5,0.00
2013-2-20,28.2,17.4,5.4,5.9,-1.6,-11.4,50,42,37,29.24,29.06,5,5,5,0.00
2013-2-21,27.7,23.1,21.9,20.1,12.2,3.4,89,65,42,29.09,28.68,5,5,5,0.00
2013-2-22,40.5,22.8,10.6,20.5,11.9,1.6,90,66,36,28.91,28.68,5,5,5,0.00
2013-2-23,48.0,24.4,6.3,23.6,11.2,-2.1,76,59,37,28.88,28.74,5,5,5,0.00
2013-2-24,63.3,35.2,18.5,28.7,20.8,13.9,86,60,27,28.91,28.77,5,5,5,0.00
2013-2-25,41.5,33.2,30.4,28.2,25.7,23.6,90,75,53,28.91,28.77,5,5,5,0.00
2013-2-26,30.6,28.8,28.2,28.0,25.2,24.7,90,86,85,28.77,28.65,5,5,5,0.00
2013-2-27,28.6,28.6,28.6,24.7,24.7,24.7,85,85,85,28.94,28.77,11,8,22,0.00
2013-2-28,28.6,28.6,28.6,24.7,24.7,24.7,85,85,85,29.09,28.94,11,11,22,0.00
2013-3-1,28.6,28.6,28.6,24.7,24.7,24.7,85,85,85,29.21,29.06,11,11,22,0.00
2013-3-2,28.6,28.6,28.6,24.7,24.7,24.7,85,85,85,29.24,28.97,11,11,22,0.00
2013-3-3,28.6,28.6,28.6,24.7,24.7,24.7,85,85,85,28.97,28.62,11,11,22,0.00
2013-3-4,28.6,28.6,28.6,24.7,24.7,24.7,85,85,85,28.91,28.56,11,11,22,0.00
2013-3-5,28.6,28.6,28.6,24.7,24.7,24.7,85,85,85,29.21,28.88,11,11,22,0.00
2013-3-6,28.6,28.6,28.6,24.7,24.7,24.7,85,85,85,29.36,29.09,11,11,22,0.00
2013-3-7,28.6,28.6,28.6,24.7,24.7,24.7,85,85,85,29.18,28.97,11,11,22,0.00
2013-3-8,28.6,28.6,28.6,24.7,24.7,24.7,85,85,85,29.09,28.77,11,11,22,0.00
2013-3-9,28.6,28.6,28.6,24.7,24.7,24.7,85,85,85,28.77,28.44,11,11,22,0.00
2013-3-10,28.6,28.6,28.6,24.7,24.7,24.7,85,85,85,28.77,28.53,11,11,22,0.00
2013-3-11,41.7,29.0,20.8,24.7,21.0,9.5,85,74,39,28.88,28.71,11,8,22,0.00
2013-3-12,41.9,31.2,20.8,20.5,17.5,12.9,82,58,40,29.21,28.88,14,5,19,0.00
2013-3-13,54.7,33.1,15.3,21.3,15.8,10.5,88,53,26,29.33,29.12,6,6,11,0.00
2013-3-14,71.1,49.0,32.5,37.2,27.6,16.3,69,45,28,29.15,28.94,6,6,11,0.00
2013-3-15,77.5,58.0,39.4,41.2,36.9,33.0,81,50,25,28.82,28.59,6,6,11,0.00
2013-3-16,41.7,35.3,30.2,37.0,25.6,19.3,86,68,50,29.03,28.74,6,6,11,0.00
2013-3-17,59.5,38.4,24.8,29.9,22.5,17.3,75,55,32,29.03,28.65,6,6,11,0.00
2013-3-18,47.7,36.7,24.1,34.4,20.6,5.5,98,57,30,28.94,28.65,6,6,11,0.00
2013-3-19,59.5,37.4,23.5,30.7,15.7,9.3,64,42,26,29.18,28.91,6,6,11,0.00
2013-3-20,43.7,28.0,17.1,14.5,6.2,-0.5,62,40,28,29.27,28.97,6,6,11,0.00
2013-3-21,44.6,29.2,18.9,17.8,9.2,3.9,55,43,30,28.97,28.80,6,6,11,0.00
2013-3-22,43.3,34.4,28.8,18.3,13.7,9.2,53,42,33,28.91,28.82,6,6,11,0.00
2013-3-23,43.5,33.4,28.6,29.1,21.5,14.2,94,64,40,28.97,28.85,6,6,11,0.00
2013-3-24,31.1,27.5,23.4,25.4,18.5,12.6,91,69,49,28.97,28.88,6,6,11,0.00
2013-3-25,32.7,28.0,24.3,23.2,18.3,14.1,86,67,46,29.21,28.94,6,6,11,0.00
2013-3-26,55.0,34.7,16.5,22.2,15.8,10.3,79,50,28,29.27,29.12,6,6,11,0.00
2013-3-27,66.6,41.1,25.5,30.6,22.7,16.1,72,51,26,29.15,29.06,6,6,11,0.00
2013-3-28,76.8,48.5,23.9,34.9,27.0,19.1,94,51,21,29.12,29.00,6,6,11,0.00
2013-4-3,66.6,51.3,33.1,27.9,22.0,18.2,56,32,24,29.24,29.09,6,6,11,0.00
2013-4-4,77.4,52.2,27.3,35.0,26.9,16.4,75,40,22,29.12,28.94,6,6,11,0.00
2013-4-5,77.4,56.6,35.8,36.7,30.2,23.1,70,40,23,29.06,28.65,6,6,11,0.00
2013-4-6,77.9,62.2,52.2,42.6,36.0,30.1,55,39,24,28.71,28.53,6,6,11,0.00
2013-4-7,86.4,61.1,39.9,53.5,36.5,29.8,94,45,19,28.77,28.53,6,6,11,0.00
2013-4-8,79.7,61.8,48.9,59.5,53.8,47.7,98,77,47,28.62,28.53,6,6,11,0.12
2013-4-9,67.1,54.5,42.1,59.4,50.9,40.8,97,88,67,28.77,28.50,6,6,11,0.05
2013-4-10,48.7,37.6,33.6,39.0,35.8,23.6,98,94,37,29.12,28.68,6,6,11,0.09
2013-4-11,41.4,34.8,31.8,33.1,26.4,22.9,98,72,55,28.68,28.56,6,6,11,0.00
2013-4-12,53.2,37.9,28.8,27.8,24.4,19.5,80,60,37,28.91,28.62,6,6,11,0.00
2013-4-13,65.7,44.9,23.9,35.3,28.9,19.6,95,59,30,28.94,28.56,6,6,11,0.00
2013-4-14,74.5,57.8,46.9,47.0,36.8,24.1,73,48,27,28.59,28.26,6,6,11,0.00
2013-4-15,47.3,40.5,33.8,24.6,21.1,18.1,62,46,38,28.82,28.59,6,6,11,0.00
2013-4-17,45.1,43.5,38.7,44.6,42.9,38.1,98,98,98,28.88,28.68,6,6,11,2.04
2013-4-18,45.1,35.7,32.7,44.6,26.4,22.2,98,69,58,28.82,28.62,6,6,11,0.00
2013-4-19,55.9,40.0,28.6,25.4,19.0,15.4,73,45,27,29.00,28.77,6,6,11,0.00
2013-4-20,60.4,41.9,21.6,27.9,20.4,11.7,86,45,25,29.12,29.00,6,6,11,0.00
2013-4-21,73.6,57.9,43.7,50.8,34.4,23.4,95,43,27,29.06,28.91,6,6,11,0.25
2013-4-22,68.4,49.6,34.7,51.7,43.1,28.9,98,80,43,29.06,28.82,6,6,11,0.50
2013-4-23,49.1,36.4,30.2,28.4,21.3,16.4,79,56,35,29.09,29.03,6,6,11,0.00
2013-4-24,66.4,44.5,24.8,31.1,23.6,16.4,77,48,23,29.12,28.94,6,6,11,0.00
2013-4-25,76.8,54.7,31.1,34.4,29.1,23.3,81,44,21,29.18,28.94,6,6,11,0.00
2013-4-26,74.1,59.3,50.2,46.1,39.6,31.7,82,50,33,29.09,28.94,6,6,11,0.00
2013-4-27,80.4,59.5,50.9,46.8,44.3,40.5,80,61,30,29.09,28.85,6,6,11,0.00
2013-4-28,86.9,65.9,45.9,51.5,46.0,40.6,98,56,23,28.85,28.62,6,6,11,0.00
2013-4-29,102.0,75.4,54.1,55.6,50.0,43.0,93,49,17,28.68,28.44,6,6,11,0.00
2013-4-30,98.4,75.8,59.5,56.8,46.7,38.6,62,37,21,28.74,28.44,6,6,11,0.00
2013-5-1,60.1,46.3,35.1,43.8,36.6,32.5,98,71,48,29.24,28.74,6,6,11,1.66
2013-5-2,50.0,40.2,32.7,36.0,28.0,19.7,98,66,37,29.39,29.24,6,6,11,0.59
2013-5-3,55.6,41.8,31.8,32.0,25.3,21.6,79,53,36,29.27,28.88,6,6,11,0.00
2013-5-4,48.2,41.1,35.4,41.5,36.4,28.7,98,84,67,29.00,28.82,6,6,11,0.04
2013-5-5,57.4,48.6,42.3,47.3,43.3,40.7,98,83,63,29.06,28.97,5,3,5,0.04
2013-5-6,83.7,58.8,48.9,49.5,46.9,43.5,95,69,30,29.06,28.94,4,4,4,0.00
2013-5-7,93.2,66.2,42.3,60.1,46.2,40.6,98,58,21,29.03,28.85,4,4,4,0.00
2013-5-8,92.8,67.6,58.3,57.6,51.9,45.2,86,60,27,28.88,28.80,4,4,4,0.00
2013-5-9,79.3,63.9,57.7,59.3,53.7,45.5,94,73,35,28.88,28.74,4,4,4,0.04
2013-5-10,81.3,61.7,50.0,55.3,43.4,35.5,91,56,24,29.00,28.88,4,4,4,0.00
2013-5-11,70.9,57.6,40.5,43.1,28.2,15.2,69,36,17,29.15,28.91,4,4,4,0.04
2013-5-12,86.5,57.8,29.5,31.7,23.3,16.4,66,32,11,29.18,29.00,4,4,4,0.00
2013-5-13,90.0,69.2,46.8,48.2,37.9,26.6,63,35,18,29.03,28.77,4,4,4,0.00
2013-5-14,106.0,83.2,57.2,54.9,47.4,37.8,77,35,13,28.77,28.59,4,4,4,0.00
2013-5-15,100.6,79.9,62.8,50.9,44.7,40.2,62,32,15,28.82,28.71,4,4,4,0.00
2013-5-16,68.2,67.2,66.9,49.9,48.8,46.0,54,52,46,28.77,28.74,4,4,4,0.00
2013-5-31,95.7,80.8,45.1,52.5,44.2,38.5,98,30,18,28.71,28.56,9,4,11,0.00
2013-6-1,68.0,61.4,56.1,51.1,45.9,40.9,67,57,45,28.94,28.62,5,4,6,0.34
2013-6-2,82.8,59.1,52.3,46.6,42.8,37.6,76,58,24,29.03,28.91,4,4,6,0.33
2013-6-18,106.7,86.6,66.0,57.0,48.5,-99.9,67,31,15,29.00,28.88,3,-5,3,0.00
2013-6-19,104.0,80.7,62.8,62.2,56.7,49.1,87,50,19,29.00,28.85,6,2,10,0.00
2013-6-20,100.4,83.9,68.5,68.3,63.4,59.2,81,54,28,28.91,28.80,10,3,18,0.20
2013-6-21,97.3,83.4,77.2,69.6,66.9,61.6,75,59,34,28.85,28.77,8,5,13,0.20
2013-6-22,102.7,86.9,75.7,67.0,61.6,55.4,70,45,27,28.97,28.77,8,4,13,0.17
2013-6-23,98.4,77.2,64.6,70.4,65.3,61.0,96,70,36,28.85,28.74,10,3,12,0.92
2013-6-24,91.2,76.9,70.9,71.2,67.6,62.2,95,75,46,28.88,28.71,6,2,7,0.46
2013-6-25,98.2,83.1,70.3,69.4,64.7,57.0,81,56,30,28.77,28.65,9,3,13,0.25
2013-6-26,106.3,85.6,69.8,72.8,62.0,49.1,95,54,17,28.88,28.62,8,2,13,0.00
2013-6-27,88.2,72.5,65.5,73.5,65.6,61.4,94,80,51,28.94,28.82,8,1,10,0.36
2013-6-28,95.7,79.5,65.3,67.2,54.1,43.3,91,49,18,29.03,28.82,11,4,18,0.21
2013-6-29,90.1,73.9,63.1,54.3,50.8,46.8,68,47,27,28.91,28.82,14,4,21,0.18
2013-6-30,92.3,72.2,56.3,57.8,48.8,40.6,93,50,20,29.03,28.85,9,2,12,0.15
2013-7-1,97.9,72.9,50.4,56.4,46.6,39.3,96,49,17,29.21,29.00,8,2,12,0.21
2013-7-2,105.3,75.6,45.1,58.3,49.6,41.4,98,50,15,29.15,28.68,6,1,8,0.13
2013-7-3,107.6,85.4,64.4,59.2,49.2,39.8,81,33,14,29.03,28.88,6,1,7,0.00
2013-7-4,100.4,78.4,56.1,54.5,49.2,43.3,81,42,16,29.00,28.82,7,2,12,0.21
2013-7-5,98.8,80.4,66.4,59.1,54.7,50.6,63,43,27,28.94,28.80,6,2,8,0.21
2013-7-6,99.9,80.9,68.4,61.1,58.2,55.0,69,48,26,28.85,28.77,8,3,12,0.21
2013-7-7,107.6,86.6,70.9,63.3,58.6,52.6,67,42,19,28.88,28.80,9,3,17,0.21
2013-7-8,97.7,84.2,74.7,71.3,64.4,58.3,72,53,31,28.94,28.85,8,2,15,0.29
2013-7-9,114.4,90.5,45.1,73.5,67.2,44.6,98,53,21,28.94,28.68,7,1,10,0.11
2013-7-10,106.2,84.2,67.1,71.5,60.0,50.7,77,49,18,29.09,28.85,7,2,9,0.00
2013-7-11,103.3,80.0,61.2,61.4,54.8,47.6,92,51,17,29.09,28.91,6,1,9,0.00
2013-7-12,103.1,82.7,66.9,62.5,58.0,53.7,70,46,25,29.00,28.88,7,3,11,0.00
2013-7-13,102.2,82.5,71.4,67.3,59.8,53.6,66,47,29,28.94,28.88,7,2,13,0.00
2013-7-14,102.9,82.4,68.9,61.8,55.1,48.2,70,44,18,29.06,28.91,6,2,10,0.00
2013-7-15,105.3,81.6,61.5,64.8,59.9,55.6,91,55,23,29.18,29.06,5,1,8,0.00
2013-7-16,110.7,85.8,66.7,69.0,60.4,51.7,93,51,16,29.24,29.09,4,1,8,0.00
2013-7-17,111.7,88.0,69.4,69.8,62.9,53.8,91,51,18,29.30,29.12,6,1,8,0.00
2013-7-18,104.4,87.0,72.0,66.2,61.4,54.9,75,47,21,29.12,28.88,10,3,17,0.00
2013-7-19,114.8,89.5,72.5,63.8,59.6,52.8,71,41,17,28.94,28.82,7,2,13,0.00
2013-7-20,106.2,81.3,66.2,65.9,59.0,54.5,79,50,23,28.97,28.80,4,1,6,0.00
2013-7-21,108.9,84.4,68.7,68.1,63.7,56.7,94,57,20,28.88,28.74,5,1,8,0.00
2013-7-22,111.2,91.0,72.5,73.0,66.4,61.8,84,50,23,28.82,28.71,7,2,10,0.00
2013-7-23,97.5,76.9,64.2,66.0,60.5,53.8,94,62,27,28.94,28.77,11,2,19,0.47
2013-7-24,102.2,77.3,58.3,62.7,56.2,48.9,97,56,19,29.09,28.91,7,1,10,0.00
2013-7-25,91.2,74.7,66.9,64.7,59.2,55.5,80,60,35,29.00,28.91,8,2,11,0.19
2013-7-26,92.1,74.1,57.0,67.4,54.3,40.5,98,58,20,29.06,28.88,11,3,16,0.21
2013-7-27,91.8,67.9,52.5,56.1,44.3,34.8,96,52,18,29.09,28.91,9,2,10,0.17
2013-7-28,98.6,70.5,46.6,53.7,44.3,36.9,93,49,16,29.03,28.94,6,1,7,0.16
2013-7-29,68.4,64.2,61.2,63.9,57.8,44.9,94,80,54,28.97,28.91,5,1,9,0.59
2013-7-30,86.9,72.0,65.5,68.5,63.2,58.8,98,77,42,29.03,28.91,5,1,6,0.21
2013-7-31,106.5,78.8,62.1,71.1,60.0,51.1,98,61,20,29.12,29.00,6,1,8,0.00
2013-8-1,105.3,79.2,62.1,70.5,60.4,47.6,98,62,16,29.09,28.80,10,2,15,0.29
2013-8-2,105.6,80.6,65.7,64.9,60.2,55.1,88,55,20,28.94,28.77,11,2,15,0.21
2013-8-3,102.0,76.7,63.0,58.3,54.5,48.1,79,52,18,29.12,28.94,7,2,9,0.16
2013-8-4,95.0,73.6,61.3,62.9,55.5,50.8,77,55,30,29.12,28.97,4,1,10,0.21
2013-8-5,105.3,81.0,69.3,68.9,65.5,60.6,94,64,26,28.97,28.80,7,2,11,0.21
2013-8-6,104.2,80.6,67.6,73.0,66.6,59.1,97,68,27,28.88,28.77,6,1,10,0.21
2013-8-7,103.5,81.4,70.0,71.1,59.0,44.7,97,55,16,28.97,28.77,6,2,8,0.00
2013-8-8,75.6,66.2,62.6,60.5,58.4,56.0,87,76,56,28.97,28.88,1,1,3,0.16
2013-8-18,102.6,81.6,66.6,58.4,53.0,46.6,74,41,21,29.18,28.97,6,3,8,0.00
2013-8-19,95.9,76.8,62.8,62.6,58.8,55.5,86,58,28,29.03,28.88,6,4,8,0.21
2013-8-20,101.1,81.1,68.4,65.5,61.5,56.3,87,56,25,28.94,28.85,7,5,12,0.21
2013-8-21,101.5,82.7,71.6,67.7,62.1,57.6,74,54,26,28.97,28.88,4,4,4,0.14
2013-8-22,104.4,79.0,70.7,68.3,64.0,55.1,90,66,21,29.18,28.91,4,3,4,0.15
2013-8-23,104.2,82.3,66.9,72.7,63.6,56.4,96,60,24,29.03,28.91,5,2,6,0.21
2013-8-24,103.5,84.5,73.4,66.5,63.8,60.1,73,53,27,29.03,28.94,6,4,6,0.21
2013-8-25,106.7,85.6,71.2,68.6,64.7,59.6,85,55,24,29.09,29.00,6,4,8,0.21
2013-8-26,105.6,86.7,73.0,67.0,63.0,56.4,80,50,22,29.06,28.91,9,5,13,0.20
2013-8-27,107.6,87.0,74.8,63.6,60.2,55.1,65,44,20,28.94,28.85,11,4,15,0.21
2013-8-28,111.0,86.4,70.5,62.4,56.9,46.3,69,42,13,28.97,28.88,9,2,13,0.00
2013-8-29,109.8,87.9,72.5,69.5,64.3,55.8,81,52,19,28.97,28.85,6,1,8,0.21
2013-8-30,115.0,90.2,70.0,71.8,60.7,48.9,78,45,13,28.88,28.77,7,2,11,0.20
2013-8-31,108.3,83.2,71.8,71.8,65.9,54.0,90,62,19,28.85,28.77,5,1,8,0.21
2013-9-1,95.7,77.3,64.6,69.8,57.0,43.3,93,57,20,28.94,28.71,12,3,18,0.67
2013-9-2,101.5,73.4,56.7,62.5,49.9,33.9,97,53,13,29.09,28.94,6,1,10,0.20
2013-9-3,102.7,73.8,51.4,63.8,51.0,43.4,95,55,16,29.09,28.94,0,0,0,0.17
2013-9-4,102.6,76.7,63.0,59.9,55.1,50.2,77,51,21,29.12,28.97,0,0,0,0.00
2013-9-5,101.1,77.1,65.3,65.0,58.1,48.4,92,58,19,29.12,29.03,0,0,0,0.25
2013-9-6,101.8,81.2,63.9,62.2,58.2,52.5,81,49,26,29.06,28.85,0,0,0,0.21
2013-9-7,118.0,84.3,71.4,68.3,60.5,48.6,79,51,12,28.88,28.77,0,0,0,0.04
2013-9-8,108.7,83.8,68.0,72.6,65.3,54.9,94,60,20,28.85,28.74,0,0,0,0.17
2013-9-9,106.5,87.8,75.7,69.0,52.8,43.6,78,34,14,28.82,28.74,0,0,0,0.20
2013-9-10,104.4,84.4,72.0,61.2,53.4,47.6,59,37,17,28.97,28.82,0,0,0,0.05
2013-9-11,99.3,77.8,69.6,70.7,64.6,57.7,91,68,28,29.06,28.97,0,0,0,0.25
2013-9-12,97.3,77.5,67.8,67.5,58.1,40.4,97,63,17,29.15,29.03,0,0,0,0.25
2013-9-19,102.6,66.7,61.5,66.2,53.5,44.6,95,64,21,29.18,28.71,0,0,1,0.05
2013-9-20,83.5,62.7,46.9,48.8,40.3,31.4,86,50,21,29.06,28.91,0,0,1,0.17
2013-9-21,92.1,64.5,42.1,54.2,41.8,37.0,96,53,17,29.00,28.82,0,0,1,0.17
2013-9-22,92.1,69.4,51.1,49.7,45.0,38.0,88,47,18,28.88,28.77,0,0,1,0.16
2013-9-23,87.3,68.4,52.0,49.0,44.3,39.5,83,46,21,28.80,28.68,0,0,1,0.17
2013-9-24,87.6,68.3,56.5,56.0,49.1,45.3,84,54,28,28.85,28.62,0,0,1,0.11
2013-9-25,95.0,69.9,50.9,60.4,50.8,45.0,96,59,20,28.88,28.71,0,0,1,0.00
2013-9-26,95.4,75.3,60.6,57.6,51.6,43.3,88,50,18,28.80,28.71,0,0,1,0.13
2013-9-27,96.3,78.8,68.0,55.3,50.9,43.5,63,41,19,28.82,28.74,0,0,1,0.17
2013-9-28,80.8,64.4,46.2,62.9,45.3,30.9,88,54,22,28.97,28.65,0,0,1,0.42
2013-9-29,88.3,62.6,40.6,48.3,37.3,30.7,95,49,15,29.00,28.82,0,0,1,0.16
2013-9-30,89.8,67.2,50.5,46.3,42.3,36.7,79,46,18,28.85,28.68,0,0,1,0.17
2013-10-1,99.3,72.3,52.2,52.2,46.0,39.0,91,46,16,28.88,28.71,0,0,1,0.16
2013-10-2,97.0,73.1,55.6,63.9,54.0,48.5,94,57,23,28.91,28.77,0,0,1,0.00
2013-10-3,90.0,72.8,61.3,65.2,58.4,51.9,94,64,32,28.85,28.65,0,0,1,1.12
2013-10-4,90.9,70.6,56.3,68.1,57.2,33.5,96,67,33,28.85,28.59,0,0,1,0.84
2013-10-5,63.9,50.9,41.5,34.0,27.3,23.7,59,41,26,28.88,28.74,0,0,1,0.21
2013-10-6,52.9,47.5,43.5,43.6,37.5,28.1,87,69,50,28.88,28.68,0,0,1,0.23
2013-10-7,86.9,59.8,37.8,41.6,33.0,27.3,90,43,13,29.03,28.88,7,2,7,0.22
2013-10-8,84.7,64.8,48.2,39.4,36.0,32.1,63,37,18,28.94,28.85,10,5,16,0.17
2013-10-9,88.9,66.8,53.4,44.3,41.5,37.8,67,43,19,28.97,28.88,6,6,6,0.00
2013-10-10,88.5,66.5,51.3,46.8,43.6,40.0,73,47,21,28.94,28.74,6,5,6,0.13
2013-10-11,87.1,68.1,54.0,52.9,43.4,26.5,71,45,16,28.82,28.59,5,4,6,0.00
2013-10-12,81.0,55.7,40.5,40.5,29.7,20.0,75,43,14,29.15,28.82,5,5,6,0.00
2013-10-13,83.8,56.4,35.6,47.8,29.5,22.6,88,43,14,29.33,29.15,5,5,6,0.00
2013-10-14,68.4,56.3,49.1,59.2,40.5,26.7,97,59,34,29.18,28.68,5,5,6,1.08
2013-10-15,60.6,51.3,43.3,54.1,34.3,28.6,87,54,34,28.97,28.74,5,5,6,0.20
2013-10-16,71.8,50.3,36.5,35.9,29.8,20.0,68,48,23,29.00,28.85,5,5,6,0.00
2013-10-17,75.6,50.1,33.1,39.6,31.1,24.8,91,54,22,28.94,28.77,5,5,6,0.17
2013-10-18,56.5,42.7,34.3,32.5,26.9,21.3,84,56,29,29.03,28.91,5,5,6,0.00
2013-10-19,75.2,48.4,33.1,32.3,28.8,23.5,91,54,18,28.91,28.71,5,5,6,0.00
2013-10-20,70.5,53.3,39.2,36.4,31.3,25.9,72,45,25,28.88,28.62,5,5,6,0.00
2013-10-21,64.6,45.3,27.9,36.2,26.9,22.0,87,53,24,29.06,28.82,5,5,6,0.00
2013-10-22,56.1,45.4,32.4,39.6,30.7,23.2,81,57,37,29.00,28.74,5,5,6,0.00
2013-10-23,56.3,40.2,27.7,36.3,29.3,23.5,90,68,36,29.09,28.94,5,5,6,0.00
2013-10-24,61.7,39.8,26.6,31.6,21.6,11.6,85,52,22,29.33,29.06,5,5,6,0.00
2013-10-25,65.7,44.0,24.1,26.8,20.7,13.7,73,43,23,29.30,28.97,5,5,6,0.00
2013-10-26,63.9,45.6,27.9,31.0,24.3,16.4,68,45,25,29.15,28.88,5,5,6,0.00
2013-10-27,75.4,48.3,25.5,32.4,24.5,18.2,78,45,18,29.03,28.77,5,5,6,0.00
2013-10-28,61.2,39.1,34.5,31.7,27.1,22.6,79,63,29,29.06,28.82,5,5,6,0.00
2013-10-30,77.7,54.0,44.6,56.5,49.5,41.9,98,86,32,28.91,28.65,4,4,6,0.38
2013-10-31,66.9,48.0,39.9,42.1,36.5,27.5,95,68,35,28.68,28.44,4,4,6,0.00
2013-11-1,66.9,49.2,38.3,36.2,31.4,24.2,76,53,24,28.88,28.50,4,4,6,0.00
2013-11-2,68.0,47.7,35.2,33.2,28.0,22.2,77,50,23,29.15,28.88,4,4,6,0.00
2013-11-3,59.7,50.3,37.2,30.1,26.9,24.6,63,42,27,28.97,28.68,4,4,6,0.00
2013-11-4,71.1,53.1,40.5,39.2,33.0,26.3,64,47,28,29.03,28.71,4,4,6,0.00
2013-11-5,57.0,47.1,36.0,56.3,40.1,30.9,98,78,53,29.03,28.68,4,4,6,0.94
2013-11-6,54.1,38.8,29.5,31.4,26.4,20.6,88,63,37,29.15,28.88,4,4,6,0.00
2013-11-7,56.7,38.8,28.8,30.8,20.9,10.4,90,53,23,29.33,29.12,4,4,6,0.00
2013-11-8,70.3,56.6,31.1,29.5,25.5,16.6,55,32,19,29.15,28.68,4,4,6,0.00
2013-11-9,71.1,53.7,43.2,29.9,25.8,22.0,47,36,22,29.21,28.82,4,4,6,0.00
2013-11-10,43.2,43.2,43.2,22.2,22.2,22.2,43,43,43,29.33,29.03,4,4,6,0.00
2013-11-11,43.2,43.2,43.2,22.2,22.2,22.2,43,43,43,29.56,29.00,4,4,6,0.00
2013-11-12,43.2,43.2,43.2,22.2,22.2,22.2,43,43,43,29.77,29.42,4,4,6,0.00
2013-11-13,43.2,43.2,43.2,22.2,22.2,22.2,43,43,43,29.44,28.91,4,4,6,0.00
2013-11-14,43.2,43.2,43.2,22.2,22.2,22.2,43,43,43,28.91,28.77,4,4,6,0.00
2013-11-15,43.2,43.2,43.2,22.2,22.2,22.2,43,43,43,28.82,28.53,4,4,6,0.00
2013-11-16,43.2,43.2,43.2,22.2,22.2,22.2,43,43,43,28.53,28.38,4,4,6,0.00